createdAt,value
2019-01-14T00:01:45.555Z,5.20
2019-01-14T00:03:47.327Z,5.20
2019-01-14T00:05:48.706Z,5.20
2019-01-14T00:07:50.129Z,5.20
2019-01-14T00:09:51.504Z,5.10
2019-01-14T00:11:52.896Z,5.10
2019-01-14T00:13:54.313Z,5.00
2019-01-14T00:15:55.690Z,5.00
2019-01-14T00:17:57.053Z,5.10
2019-01-14T00:19:58.492Z,5.10
2019-01-14T00:22:00.017Z,5.00
2019-01-14T00:24:01.393Z,5.00
2019-01-14T00:26:03.672Z,5.00
2019-01-14T00:28:05.035Z,5.10
2019-01-14T00:30:11.227Z,5.10
2019-01-14T00:32:12.813Z,5.10
2019-01-14T00:34:14.508Z,5.00
2019-01-14T00:36:17.594Z,5.10
2019-01-14T00:38:19.231Z,5.10
2019-01-14T00:40:20.596Z,5.10
2019-01-14T00:42:22.169Z,5.10
2019-01-14T00:44:23.634Z,5.10
2019-01-14T00:46:25.018Z,5.10
2019-01-14T00:48:26.406Z,5.10
2019-01-14T00:50:28.254Z,5.10
2019-01-14T00:52:29.649Z,5.10
2019-01-14T00:54:31.031Z,5.20
2019-01-14T00:56:32.485Z,5.10
2019-01-14T00:58:33.905Z,5.20
2019-01-14T01:00:35.380Z,5.10
2019-01-14T01:02:36.802Z,5.20
2019-01-14T01:04:38.173Z,5.20
2019-01-14T01:06:39.562Z,5.20
2019-01-14T01:08:40.997Z,5.20
2019-01-14T01:10:42.375Z,5.20
2019-01-14T01:12:44.361Z,5.10
2019-01-14T01:14:45.991Z,5.10
2019-01-14T01:16:47.542Z,5.10
2019-01-14T01:18:48.910Z,5.10
2019-01-14T01:20:50.847Z,5.10
2019-01-14T01:22:52.944Z,5.10
2019-01-14T01:24:54.312Z,5.10
2019-01-14T01:26:55.802Z,5.10
2019-01-14T01:28:57.265Z,5.10
2019-01-14T01:30:58.628Z,5.10
2019-01-14T01:33:00.010Z,5.10
2019-01-14T01:35:03.323Z,5.10
2019-01-14T01:37:04.703Z,5.00
2019-01-14T01:39:06.493Z,5.00
2019-01-14T01:41:07.937Z,5.00
2019-01-14T01:43:09.307Z,4.90
2019-01-14T01:45:11.791Z,4.90
2019-01-14T01:47:13.220Z,4.90
2019-01-14T01:49:14.621Z,4.80
2019-01-14T01:51:15.997Z,4.80
2019-01-14T01:53:17.431Z,4.80
2019-01-14T01:55:18.809Z,4.90
2019-01-14T01:57:20.191Z,4.90
2019-01-14T01:59:21.611Z,4.80
2019-01-14T02:01:23.059Z,4.80
2019-01-14T02:03:24.437Z,4.80
2019-01-14T02:05:25.804Z,4.80
2019-01-14T02:07:27.250Z,4.70
2019-01-14T02:09:28.612Z,4.80
2019-01-14T02:11:29.988Z,4.80
2019-01-14T02:13:31.426Z,4.80
2019-01-14T02:15:32.811Z,4.70
2019-01-14T02:17:34.345Z,4.70
2019-01-14T02:19:35.716Z,4.70
2019-01-14T02:21:37.114Z,4.70
2019-01-14T02:23:38.599Z,4.70
2019-01-14T02:25:39.973Z,4.70
2019-01-14T02:27:41.346Z,4.70
2019-01-14T02:29:43.018Z,4.70
2019-01-14T02:31:44.384Z,4.70
2019-01-14T02:33:45.766Z,4.70
2019-01-14T02:35:47.543Z,4.70
2019-01-14T02:37:48.928Z,4.70
2019-01-14T02:39:50.310Z,4.70
2019-01-14T02:41:51.748Z,4.70
2019-01-14T02:43:53.124Z,4.60
2019-01-14T02:45:54.506Z,4.60
2019-01-14T02:47:56.046Z,4.60
2019-01-14T02:49:57.430Z,4.60
2019-01-14T02:51:58.811Z,4.60
2019-01-14T02:54:00.262Z,4.60
2019-01-14T02:56:01.718Z,4.60
2019-01-14T02:58:03.285Z,4.50
2019-01-14T03:00:10.515Z,4.50
2019-01-14T03:02:11.886Z,4.50
2019-01-14T03:04:13.257Z,4.50
2019-01-14T03:06:14.695Z,4.50
2019-01-14T03:08:16.132Z,4.50
2019-01-14T03:10:17.520Z,4.50
2019-01-14T03:12:18.892Z,4.50
2019-01-14T03:14:20.327Z,4.50
2019-01-14T03:16:21.766Z,4.40
2019-01-14T03:18:23.211Z,4.40
2019-01-14T03:20:24.666Z,4.40
2019-01-14T03:22:26.046Z,4.40
2019-01-14T03:24:27.457Z,4.30
2019-01-14T03:26:29.008Z,4.30
2019-01-14T03:28:30.389Z,4.30
2019-01-14T03:30:31.759Z,4.30
2019-01-14T03:32:33.209Z,4.30
2019-01-14T03:34:34.607Z,4.30
2019-01-14T03:36:36.044Z,4.20
2019-01-14T03:38:37.428Z,4.30
2019-01-14T03:40:38.828Z,4.30
2019-01-14T03:42:40.380Z,4.20
2019-01-14T03:44:41.748Z,4.20
2019-01-14T03:46:43.144Z,4.20
2019-01-14T03:48:44.598Z,4.20
2019-01-14T03:50:45.986Z,4.10
2019-01-14T03:52:47.481Z,4.10
2019-01-14T03:54:48.986Z,4.20
2019-01-14T03:56:50.326Z,4.10
2019-01-14T03:58:51.714Z,4.10
2019-01-14T04:00:53.123Z,4.10
2019-01-14T04:02:54.509Z,4.00
2019-01-14T04:04:55.950Z,4.00
2019-01-14T04:06:57.331Z,4.00
2019-01-14T04:08:58.783Z,4.00
2019-01-14T04:11:00.178Z,3.90
2019-01-14T04:13:01.665Z,3.90
2019-01-14T04:15:06.139Z,3.90
2019-01-14T04:17:07.528Z,3.90
2019-01-14T04:19:08.923Z,3.80
2019-01-14T04:21:10.497Z,3.80
2019-01-14T04:23:11.885Z,3.70
2019-01-14T04:25:13.678Z,3.70
2019-01-14T04:27:15.126Z,3.70
2019-01-14T04:29:16.565Z,3.70
2019-01-14T04:31:17.960Z,3.60
2019-01-14T04:33:19.371Z,3.50
2019-01-14T04:35:21.292Z,3.50
2019-01-14T04:37:22.687Z,3.40
2019-01-14T04:39:24.381Z,3.30
2019-01-14T04:41:25.813Z,3.30
2019-01-14T04:43:27.205Z,3.20
2019-01-14T04:45:28.609Z,3.10
2019-01-14T04:47:30.050Z,3.10
2019-01-14T04:49:31.420Z,3.00
2019-01-14T04:51:32.871Z,3.00
2019-01-14T04:53:34.273Z,3.00
2019-01-14T04:55:35.656Z,2.90
2019-01-14T04:57:37.070Z,2.90
2019-01-14T04:59:38.499Z,2.90
2019-01-14T05:01:39.918Z,2.90
2019-01-14T05:03:41.309Z,2.90
2019-01-14T05:05:42.731Z,2.80
2019-01-14T05:07:44.362Z,2.80
2019-01-14T05:09:45.747Z,2.80
2019-01-14T05:11:47.143Z,2.80
2019-01-14T05:13:48.572Z,2.80
2019-01-14T05:15:49.989Z,2.70
2019-01-14T05:17:51.372Z,2.70
2019-01-14T05:19:52.784Z,2.70
2019-01-14T05:21:54.169Z,2.70
2019-01-14T05:23:55.566Z,2.60
2019-01-14T05:25:56.969Z,2.60
2019-01-14T05:27:58.389Z,2.60
2019-01-14T05:29:59.777Z,2.60
2019-01-14T05:32:01.375Z,2.60
2019-01-14T05:34:03.206Z,2.50
2019-01-14T05:36:04.604Z,2.50
2019-01-14T05:38:06.092Z,2.60
2019-01-14T05:40:14.242Z,2.60
2019-01-14T05:42:15.611Z,2.60
2019-01-14T05:44:16.982Z,2.60
2019-01-14T05:46:18.412Z,2.60
2019-01-14T05:48:19.808Z,2.60
2019-01-14T05:50:21.203Z,2.60
2019-01-14T05:52:22.643Z,2.50
2019-01-14T05:54:24.038Z,2.50
2019-01-14T05:56:25.429Z,2.50
2019-01-14T05:58:26.846Z,2.50
2019-01-14T06:00:32.733Z,2.50
2019-01-14T06:02:34.166Z,2.40
2019-01-14T06:04:35.618Z,2.40
2019-01-14T06:06:37.012Z,2.40
2019-01-14T06:08:38.387Z,2.40
2019-01-14T06:10:40.142Z,2.30
2019-01-14T06:12:41.509Z,2.30
2019-01-14T06:14:42.898Z,2.30
2019-01-14T06:16:44.292Z,2.30
2019-01-14T06:18:45.716Z,2.30
2019-01-14T06:20:47.372Z,2.30
2019-01-14T06:22:48.759Z,2.40
2019-01-14T06:24:50.136Z,2.40
2019-01-14T06:26:51.781Z,2.50
2019-01-14T06:28:53.172Z,2.40
2019-01-14T06:30:54.564Z,2.40
2019-01-14T06:32:56.081Z,2.40
2019-01-14T06:34:57.583Z,2.40
2019-01-14T06:36:58.966Z,2.40
2019-01-14T06:39:00.369Z,2.30
2019-01-14T06:41:01.734Z,2.20
2019-01-14T06:43:03.122Z,2.20
2019-01-14T06:45:06.869Z,2.20
2019-01-14T06:47:08.258Z,2.20
2019-01-14T06:49:09.677Z,2.30
2019-01-14T06:51:11.055Z,2.30
2019-01-14T06:53:12.431Z,2.30
2019-01-14T06:55:14.962Z,2.30
2019-01-14T06:57:16.357Z,2.30
2019-01-14T06:59:17.730Z,2.30
2019-01-14T07:01:19.130Z,2.20
2019-01-14T07:03:20.521Z,2.20
2019-01-14T07:05:22.105Z,2.20
2019-01-14T07:07:23.509Z,2.20
2019-01-14T07:09:24.931Z,2.20
2019-01-14T07:11:26.624Z,2.20
2019-01-14T07:13:28.033Z,2.20
2019-01-14T07:15:29.548Z,2.10
2019-01-14T07:17:30.951Z,2.10
2019-01-14T07:19:32.378Z,2.10
2019-01-14T07:21:33.746Z,2.10
2019-01-14T07:23:35.122Z,2.10
2019-01-14T07:25:36.547Z,2.10
2019-01-14T07:27:37.928Z,2.10
2019-01-14T07:29:39.333Z,2.00
2019-01-14T07:31:40.864Z,2.00
2019-01-14T07:33:42.260Z,2.10
2019-01-14T07:35:43.647Z,2.10
2019-01-14T07:37:45.898Z,2.00
2019-01-14T07:39:47.287Z,2.00
2019-01-14T07:41:48.679Z,2.00
2019-01-14T07:43:50.089Z,2.00
2019-01-14T07:45:51.953Z,2.00
2019-01-14T07:47:53.410Z,2.00
2019-01-14T07:49:54.800Z,2.00
2019-01-14T07:51:56.226Z,2.00
2019-01-14T07:53:57.653Z,2.00
2019-01-14T07:55:59.081Z,2.00
2019-01-14T07:58:00.461Z,2.00
2019-01-14T08:00:12.932Z,2.00
2019-01-14T08:02:14.316Z,2.00
2019-01-14T08:04:15.708Z,2.00
2019-01-14T08:06:17.140Z,2.00
2019-01-14T08:08:18.573Z,2.00
2019-01-14T08:10:19.995Z,1.90
2019-01-14T08:12:21.381Z,1.90
2019-01-14T08:14:22.809Z,2.00
2019-01-14T08:16:24.192Z,2.00
2019-01-14T08:18:25.620Z,2.00
2019-01-14T08:20:27.024Z,2.00
2019-01-14T08:22:28.448Z,2.00
2019-01-14T08:24:29.945Z,2.00
2019-01-14T08:26:31.367Z,2.00
2019-01-14T08:28:32.764Z,2.10
2019-01-14T08:30:34.183Z,2.10
2019-01-14T08:32:35.571Z,2.10
2019-01-14T08:34:36.989Z,2.10
2019-01-14T08:36:38.362Z,2.20
2019-01-14T08:38:39.784Z,2.20
2019-01-14T08:40:41.178Z,2.20
2019-01-14T08:42:42.573Z,2.30
2019-01-14T08:44:44.099Z,2.30
2019-01-14T08:46:45.533Z,2.30
2019-01-14T08:48:48.883Z,2.30
2019-01-14T08:50:50.248Z,2.30
2019-01-14T08:52:51.642Z,2.40
2019-01-14T08:54:53.063Z,2.30
2019-01-14T08:56:54.435Z,2.30
2019-01-14T08:58:57.896Z,2.30
2019-01-14T09:00:59.344Z,2.30
2019-01-14T09:03:00.773Z,2.40
2019-01-14T09:05:04.359Z,2.40
2019-01-14T09:07:05.741Z,2.40
2019-01-14T09:09:08.112Z,2.40
2019-01-14T09:11:09.797Z,2.40
2019-01-14T09:13:11.282Z,2.40
2019-01-14T09:15:16.006Z,2.40
2019-01-14T09:17:17.425Z,2.40
2019-01-14T09:19:18.794Z,2.40
2019-01-14T09:21:20.161Z,2.40
2019-01-14T09:23:21.607Z,2.40
2019-01-14T09:25:22.998Z,2.50
2019-01-14T09:27:24.717Z,2.50
2019-01-14T09:29:26.440Z,2.50
2019-01-14T09:31:30.411Z,2.60
2019-01-14T09:33:32.243Z,2.60
2019-01-14T09:35:33.939Z,2.60
2019-01-14T09:37:35.835Z,2.70
2019-01-14T09:39:37.602Z,2.70
2019-01-14T09:41:39.287Z,2.70
2019-01-14T09:43:40.978Z,2.60
2019-01-14T09:45:42.975Z,2.70
2019-01-14T09:47:44.651Z,2.70
2019-01-14T09:49:46.338Z,2.80
2019-01-14T09:51:48.580Z,2.80
2019-01-14T09:53:50.674Z,2.90
2019-01-14T09:55:52.381Z,2.90
2019-01-14T09:57:54.565Z,3.00
2019-01-14T09:59:56.308Z,3.00
2019-01-14T10:01:58.107Z,3.00
2019-01-14T10:03:59.839Z,3.00
2019-01-14T10:06:01.540Z,3.10
2019-01-14T10:08:03.415Z,3.20
2019-01-14T10:10:12.717Z,3.20
2019-01-14T10:12:14.414Z,3.10
2019-01-14T10:14:16.107Z,3.20
2019-01-14T10:16:17.938Z,3.30
2019-01-14T10:18:19.656Z,3.40
2019-01-14T10:20:21.321Z,3.30
2019-01-14T10:22:23.013Z,3.20
2019-01-14T10:24:24.739Z,3.10
2019-01-14T10:26:26.432Z,3.00
2019-01-14T10:28:28.324Z,3.00
2019-01-14T10:30:29.873Z,3.00
2019-01-14T10:32:31.257Z,3.10
2019-01-14T10:34:32.675Z,3.10
2019-01-14T10:36:34.635Z,3.20
2019-01-14T10:38:36.019Z,3.30
2019-01-14T10:40:38.158Z,3.30
2019-01-14T10:42:40.322Z,3.40
2019-01-14T10:44:42.117Z,3.40
2019-01-14T10:46:43.946Z,3.40
2019-01-14T10:48:45.526Z,3.50
2019-01-14T10:50:47.355Z,3.60
2019-01-14T10:52:48.956Z,3.60
2019-01-14T10:54:50.370Z,3.60
2019-01-14T10:56:52.761Z,3.60
2019-01-14T10:58:54.830Z,3.70
2019-01-14T11:00:56.636Z,3.70
2019-01-14T11:02:58.826Z,3.70
2019-01-14T11:05:00.637Z,3.70
2019-01-14T11:07:02.853Z,3.70
2019-01-14T11:09:07.786Z,3.60
2019-01-14T11:11:09.622Z,3.70
2019-01-14T11:13:11.691Z,3.80
2019-01-14T11:15:17.149Z,4.00
2019-01-14T11:17:18.826Z,4.10
2019-01-14T11:19:20.696Z,4.10
2019-01-14T11:21:22.885Z,4.00
2019-01-14T11:23:24.600Z,3.80
2019-01-14T11:25:26.157Z,3.70
2019-01-14T11:27:27.880Z,3.60
2019-01-14T11:29:33.555Z,3.50
2019-01-14T11:31:35.098Z,3.50
2019-01-14T11:33:40.413Z,3.40
2019-01-14T11:35:42.023Z,3.30
2019-01-14T11:37:43.914Z,3.30
2019-01-14T11:39:45.794Z,3.30
2019-01-14T11:41:47.647Z,3.30
2019-01-14T11:43:50.160Z,3.30
2019-01-14T11:45:51.553Z,3.30
2019-01-14T11:47:53.188Z,3.30
2019-01-14T11:49:54.598Z,3.30
2019-01-14T11:51:55.992Z,3.30
2019-01-14T11:53:57.415Z,3.40
2019-01-14T11:55:58.837Z,3.40
2019-01-14T11:58:00.300Z,3.40
2019-01-14T12:00:05.378Z,3.40
2019-01-14T12:02:06.919Z,3.40
2019-01-14T12:04:08.313Z,3.30
2019-01-14T12:06:09.938Z,3.30
2019-01-14T12:08:11.430Z,3.30
2019-01-14T12:10:13.142Z,3.30
2019-01-14T12:12:14.545Z,3.30
2019-01-14T12:14:15.976Z,3.30
2019-01-14T12:16:17.382Z,3.30
2019-01-14T12:18:18.810Z,3.40
2019-01-14T12:20:20.211Z,3.30
2019-01-14T12:22:21.597Z,3.30
2019-01-14T12:24:22.991Z,3.20
2019-01-14T12:26:24.425Z,3.20
2019-01-14T12:28:25.816Z,3.10
2019-01-14T12:30:31.710Z,3.10
2019-01-14T12:32:33.333Z,3.10
2019-01-14T12:34:34.729Z,3.10
2019-01-14T12:36:36.105Z,3.00
2019-01-14T12:38:37.526Z,3.00
2019-01-14T12:40:38.898Z,3.00
2019-01-14T12:42:40.394Z,3.00
2019-01-14T12:44:41.820Z,3.00
2019-01-14T12:46:43.218Z,3.00
2019-01-14T12:48:44.655Z,3.00
2019-01-14T12:50:46.051Z,3.00
2019-01-14T12:52:47.433Z,3.00
2019-01-14T12:54:49.063Z,3.00
2019-01-14T12:56:50.471Z,3.10
2019-01-14T12:58:51.848Z,3.30
2019-01-14T13:00:53.281Z,3.40
2019-01-14T13:02:58.420Z,3.40
2019-01-14T13:04:58.210Z,3.40
2019-01-14T13:06:59.845Z,3.30
2019-01-14T13:09:01.224Z,3.20
2019-01-14T13:11:02.820Z,3.10
2019-01-14T13:13:04.254Z,3.10
2019-01-14T13:15:10.962Z,3.10
2019-01-14T13:17:12.399Z,3.00
2019-01-14T13:19:13.833Z,3.00
2019-01-14T13:21:15.455Z,2.90
2019-01-14T13:23:16.865Z,2.90
2019-01-14T13:25:18.336Z,2.90
2019-01-14T13:27:19.746Z,2.90
2019-01-14T13:29:21.136Z,3.00
2019-01-14T13:31:22.581Z,3.00
2019-01-14T13:33:23.973Z,2.90
2019-01-14T13:35:25.408Z,2.90
2019-01-14T13:37:26.945Z,2.90
2019-01-14T13:39:33.926Z,2.90
2019-01-14T13:41:31.659Z,2.90
2019-01-14T13:43:33.085Z,2.90
2019-01-14T13:45:34.480Z,2.90
2019-01-14T13:47:35.918Z,2.90
2019-01-14T13:49:37.304Z,2.80
2019-01-14T13:51:38.696Z,2.80
2019-01-14T13:53:40.133Z,2.80
2019-01-14T13:55:41.515Z,2.80
2019-01-14T13:57:42.999Z,2.70
2019-01-14T13:59:44.415Z,2.70
2019-01-14T14:01:45.856Z,2.70
2019-01-14T14:03:47.256Z,2.70
2019-01-14T14:05:48.671Z,2.60
2019-01-14T14:07:50.304Z,2.60
2019-01-14T14:09:51.704Z,2.60
2019-01-14T14:11:53.094Z,2.50
2019-01-14T14:13:54.613Z,2.50
2019-01-14T14:15:56.005Z,2.50
2019-01-14T14:17:57.437Z,2.60
2019-01-14T14:19:58.823Z,2.70
2019-01-14T14:22:00.264Z,2.70
2019-01-14T14:24:01.673Z,2.70
2019-01-14T14:26:03.148Z,2.70
2019-01-14T14:28:04.571Z,2.80
2019-01-14T14:30:17.684Z,2.80
2019-01-14T14:32:19.072Z,2.90
2019-01-14T14:34:20.522Z,2.90
2019-01-14T14:36:21.908Z,2.90
2019-01-14T14:38:23.294Z,3.00
2019-01-14T14:40:24.797Z,2.90
2019-01-14T14:42:26.158Z,2.90
2019-01-14T14:44:27.569Z,2.80
2019-01-14T14:46:28.980Z,2.70
2019-01-14T14:48:30.435Z,2.70
2019-01-14T14:50:31.870Z,2.60
2019-01-14T14:52:33.266Z,2.60
2019-01-14T14:54:34.658Z,2.50
2019-01-14T14:56:36.060Z,2.50
2019-01-14T14:58:37.436Z,2.40
2019-01-14T15:00:38.878Z,2.40
2019-01-14T15:02:40.305Z,2.30
2019-01-14T15:04:41.709Z,2.20
2019-01-14T15:06:43.431Z,2.10
2019-01-14T15:08:44.859Z,2.10
2019-01-14T15:10:46.220Z,2.00
2019-01-14T15:12:47.898Z,2.00
2019-01-14T15:14:49.284Z,1.90
2019-01-14T15:16:50.678Z,1.80
2019-01-14T15:18:52.219Z,1.80
2019-01-14T15:20:53.579Z,1.80
2019-01-14T15:22:55.177Z,1.70
2019-01-14T15:24:56.587Z,1.70
2019-01-14T15:26:57.976Z,1.70
2019-01-14T15:28:59.429Z,1.70
2019-01-14T15:31:00.818Z,1.60
2019-01-14T15:33:02.295Z,1.60
2019-01-14T15:35:04.918Z,1.60
2019-01-14T15:37:06.302Z,1.60
2019-01-14T15:39:08.402Z,1.50
2019-01-14T15:41:09.851Z,1.50
2019-01-14T15:43:11.276Z,1.40
2019-01-14T15:45:18.715Z,1.40
2019-01-14T15:47:20.107Z,1.30
2019-01-14T15:49:21.538Z,1.30
2019-01-14T15:51:22.930Z,1.30
2019-01-14T15:53:24.355Z,1.30
2019-01-14T15:55:25.842Z,1.20
2019-01-14T15:57:27.229Z,1.20
2019-01-14T15:59:28.686Z,1.20
2019-01-14T16:01:30.140Z,1.20
2019-01-14T16:03:31.567Z,1.10
2019-01-14T16:05:33.033Z,1.10
2019-01-14T16:07:34.421Z,1.10
2019-01-14T16:09:35.812Z,1.10
2019-01-14T16:11:37.468Z,1.10
2019-01-14T16:13:38.838Z,1.10
2019-01-14T16:15:40.221Z,1.00
2019-01-14T16:17:41.830Z,1.00
2019-01-14T16:19:43.258Z,1.10
2019-01-14T16:21:44.709Z,1.10
2019-01-14T16:23:46.093Z,1.10
2019-01-14T16:25:47.460Z,1.00
2019-01-14T16:27:48.907Z,1.00
2019-01-14T16:29:50.351Z,1.00
2019-01-14T16:31:51.740Z,1.00
2019-01-14T16:33:53.190Z,1.00
2019-01-14T16:35:54.569Z,1.00
2019-01-14T16:37:56.175Z,1.00
2019-01-14T16:39:57.590Z,0.90
2019-01-14T16:41:59.037Z,0.90
2019-01-14T16:44:00.424Z,0.90
2019-01-14T16:46:01.819Z,0.80
2019-01-14T16:48:03.361Z,0.80
2019-01-14T16:50:09.046Z,0.90
2019-01-14T16:52:10.483Z,0.90
2019-01-14T16:54:11.942Z,0.80
2019-01-14T16:56:13.369Z,0.80
2019-01-14T16:58:14.796Z,0.80
2019-01-14T17:00:17.369Z,0.80
2019-01-14T17:02:18.751Z,0.80
2019-01-14T17:04:20.141Z,0.80
2019-01-14T17:06:21.566Z,0.70
2019-01-14T17:08:22.952Z,0.80
2019-01-14T17:10:25.291Z,0.80
2019-01-14T17:12:26.872Z,0.80
2019-01-14T17:14:28.260Z,0.90
2019-01-14T17:16:29.652Z,0.90
2019-01-14T17:18:31.066Z,0.90
2019-01-14T17:20:32.498Z,0.90
2019-01-14T17:22:33.876Z,0.90
2019-01-14T17:24:35.322Z,0.90
2019-01-14T17:26:36.707Z,0.90
2019-01-14T17:28:38.149Z,0.90
2019-01-14T17:30:39.542Z,0.90
2019-01-14T17:32:40.912Z,0.90
2019-01-14T17:34:42.611Z,0.90
2019-01-14T17:36:43.999Z,0.90
2019-01-14T17:38:45.397Z,0.90
2019-01-14T17:40:46.855Z,0.90
2019-01-14T17:42:48.266Z,0.90
2019-01-14T17:44:49.623Z,0.80
2019-01-14T17:46:51.043Z,0.80
2019-01-14T17:48:52.761Z,0.80
2019-01-14T17:50:54.195Z,0.80
2019-01-14T17:52:55.640Z,0.90
2019-01-14T17:54:57.480Z,0.80
2019-01-14T17:56:58.816Z,0.80
2019-01-14T17:59:00.210Z,0.80
2019-01-14T18:01:01.656Z,0.80
2019-01-14T18:03:03.342Z,0.80
2019-01-14T18:05:05.825Z,0.70
2019-01-14T18:07:07.263Z,0.70
2019-01-14T18:09:08.649Z,0.70
2019-01-14T18:11:10.281Z,0.60
2019-01-14T18:13:11.835Z,0.60
2019-01-14T18:15:13.327Z,0.60
2019-01-14T18:17:14.769Z,0.50
2019-01-14T18:19:16.152Z,0.50
2019-01-14T18:21:17.522Z,0.40
2019-01-14T18:23:18.960Z,0.40
2019-01-14T18:25:20.341Z,0.30
2019-01-14T18:27:21.781Z,0.30
2019-01-14T18:29:23.168Z,0.30
2019-01-14T18:31:24.559Z,0.20
2019-01-14T18:33:25.997Z,0.30
2019-01-14T18:35:27.385Z,0.30
2019-01-14T18:37:28.769Z,0.30
2019-01-14T18:39:30.215Z,0.30
2019-01-14T18:41:31.593Z,0.30
2019-01-14T18:43:32.980Z,0.30
2019-01-14T18:45:34.415Z,0.30
2019-01-14T18:47:35.797Z,0.30
2019-01-14T18:49:37.258Z,0.20
2019-01-14T18:51:38.972Z,0.30
2019-01-14T18:53:40.348Z,0.30
2019-01-14T18:55:41.733Z,0.30
2019-01-14T18:57:43.570Z,0.30
2019-01-14T18:59:44.960Z,0.30
2019-01-14T19:01:46.346Z,0.30
2019-01-14T19:03:47.790Z,0.30
2019-01-14T19:05:49.181Z,0.30
2019-01-14T19:07:50.566Z,0.30
2019-01-14T19:09:52.000Z,0.40
2019-01-14T19:11:53.375Z,0.40
2019-01-14T19:13:55.086Z,0.40
2019-01-14T19:15:56.492Z,0.40
2019-01-14T19:17:57.872Z,0.40
2019-01-14T19:19:59.319Z,0.30
2019-01-14T19:22:00.732Z,0.30
2019-01-14T19:24:02.506Z,0.30
2019-01-14T19:26:03.958Z,0.30
2019-01-14T19:28:05.436Z,0.30
2019-01-14T19:30:11.715Z,0.30
2019-01-14T19:32:13.607Z,0.20
2019-01-14T19:34:14.992Z,0.20
2019-01-14T19:36:16.376Z,0.30
2019-01-14T19:38:17.953Z,0.30
2019-01-14T19:40:19.661Z,0.30
2019-01-14T19:42:21.012Z,0.30
2019-01-14T19:44:22.457Z,0.30
2019-01-14T19:46:23.834Z,0.30
2019-01-14T19:48:25.211Z,0.20
2019-01-14T19:50:27.239Z,0.20
2019-01-14T19:52:28.624Z,0.20
2019-01-14T19:54:30.107Z,0.10
2019-01-14T19:56:31.553Z,0.20
2019-01-14T19:58:33.004Z,0.20
2019-01-14T20:00:34.492Z,0.20
2019-01-14T20:02:35.879Z,0.20
2019-01-14T20:04:37.306Z,0.10
2019-01-14T20:06:38.747Z,0.20
2019-01-14T20:08:40.333Z,0.20
2019-01-14T20:10:41.722Z,0.20
2019-01-14T20:12:43.255Z,0.10
2019-01-14T20:14:44.675Z,0.10
2019-01-14T20:16:46.042Z,0.10
2019-01-14T20:18:47.642Z,0.10
2019-01-14T20:20:49.013Z,0.10
2019-01-14T20:22:50.483Z,0.10
2019-01-14T20:24:51.904Z,0.10
2019-01-14T20:26:53.375Z,0.10
2019-01-14T20:28:54.902Z,0.10
2019-01-14T20:30:56.338Z,0.10
2019-01-14T20:32:57.925Z,0.10
2019-01-14T20:34:59.363Z,0.10
2019-01-14T20:37:00.750Z,0.10
2019-01-14T20:39:06.839Z,0.10
2019-01-14T20:41:08.286Z,0.10
2019-01-14T20:43:09.673Z,0.10
2019-01-14T20:45:14.166Z,0.10
2019-01-14T20:47:15.635Z,0.10
2019-01-14T20:49:17.038Z,0.10
2019-01-14T20:51:18.502Z,0.00
2019-01-14T20:53:19.991Z,0.00
2019-01-14T20:55:22.447Z,0.10
2019-01-14T20:57:23.836Z,0.10
2019-01-14T20:59:25.329Z,0.10
2019-01-14T21:01:26.904Z,0.00
2019-01-14T21:03:28.277Z,0.00
2019-01-14T21:05:29.740Z,0.00
2019-01-14T21:07:31.216Z,0.00
2019-01-14T21:09:32.578Z,0.00
2019-01-14T21:11:34.405Z,0.00
2019-01-14T21:13:35.876Z,0.00
2019-01-14T21:15:40.312Z,0.00
2019-01-14T21:17:46.386Z,0.00
2019-01-14T21:19:49.510Z,0.00
2019-01-14T21:21:54.594Z,0.00
2019-01-14T21:23:56.343Z,0.00
2019-01-14T21:26:02.289Z,0.00
2019-01-14T21:28:07.178Z,0.00
2019-01-14T21:30:20.298Z,0.00
2019-01-14T21:32:24.654Z,0.00
2019-01-14T21:34:30.154Z,0.00
2019-01-14T21:36:36.331Z,0.00
2019-01-14T21:38:42.744Z,0.00
2019-01-14T21:40:48.832Z,0.00
2019-01-14T21:42:53.444Z,0.00
2019-01-14T21:44:58.980Z,0.00
2019-01-14T21:47:01.203Z,0.00
2019-01-14T21:49:03.737Z,0.00
2019-01-14T21:51:05.994Z,0.00
2019-01-14T21:53:08.084Z,0.00
2019-01-14T21:55:13.696Z,0.00
2019-01-14T21:57:16.008Z,0.00
2019-01-14T21:59:17.529Z,0.10
2019-01-14T22:01:19.251Z,0.10
2019-01-14T22:03:20.830Z,0.00
2019-01-14T22:05:22.848Z,0.10
2019-01-14T22:07:24.403Z,0.10
2019-01-14T22:09:26.571Z,0.10
2019-01-14T22:11:30.031Z,0.10
2019-01-14T22:13:31.787Z,0.00
2019-01-14T22:15:33.318Z,0.00
2019-01-14T22:17:34.817Z,0.10
2019-01-14T22:19:36.210Z,0.10
2019-01-14T22:21:37.573Z,0.10
2019-01-14T22:23:38.958Z,0.20
2019-01-14T22:25:40.462Z,0.20
2019-01-14T22:27:41.866Z,0.20
2019-01-14T22:29:45.309Z,0.20
2019-01-14T22:31:46.638Z,0.20
2019-01-14T22:33:48.017Z,0.30
2019-01-14T22:35:49.440Z,0.30
2019-01-14T22:37:50.826Z,0.40
2019-01-14T22:39:52.287Z,0.40
2019-01-14T22:41:53.704Z,0.40
2019-01-14T22:43:55.150Z,0.50
2019-01-14T22:45:56.497Z,0.50
2019-01-14T22:47:57.902Z,0.40
2019-01-14T22:49:59.267Z,0.40
2019-01-14T22:52:00.659Z,0.40
2019-01-14T22:54:02.109Z,0.50
2019-01-14T22:56:03.481Z,0.50
2019-01-14T22:58:04.860Z,0.60
2019-01-14T23:00:37.548Z,0.50
2019-01-14T23:02:38.905Z,0.60
2019-01-14T23:04:40.292Z,0.60
2019-01-14T23:06:41.721Z,0.70
2019-01-14T23:08:43.745Z,0.70
2019-01-14T23:10:45.326Z,0.80
2019-01-14T23:12:46.718Z,0.80
2019-01-14T23:14:48.085Z,0.90
2019-01-14T23:16:51.392Z,0.90
2019-01-14T23:18:52.774Z,0.80
2019-01-14T23:20:54.368Z,0.90
2019-01-14T23:22:55.781Z,0.90
2019-01-14T23:24:57.141Z,1.00
2019-01-14T23:26:58.575Z,1.00
2019-01-14T23:28:59.993Z,1.00
2019-01-14T23:31:01.384Z,1.00
2019-01-14T23:33:03.073Z,1.10
2019-01-14T23:35:06.533Z,1.10
2019-01-14T23:37:07.869Z,1.20
2019-01-14T23:39:09.297Z,1.20
2019-01-14T23:41:10.639Z,1.20
2019-01-14T23:43:12.019Z,1.20
2019-01-14T23:45:13.435Z,1.30
2019-01-14T23:47:14.847Z,1.30
2019-01-14T23:49:16.212Z,1.40
2019-01-14T23:51:17.890Z,1.40
2019-01-14T23:53:19.281Z,1.50
2019-01-14T23:55:20.741Z,1.50
2019-01-14T23:57:22.130Z,1.40
2019-01-14T23:59:23.514Z,1.50
